Time;durP1;ratioP1;P1;durP2;ratioP2;P2;SDS_P1;SDS_P2;PMS_P1;PMS_P2;Temp;Humidity;BMP_temperature;BMP_pressure;BME280_temperature;BME280_humidity;BME280_pressure;Samples;Min_cycle;Max_cycle;Signal;HPM_P1;HPM_P2
2024/02/15 00:01:04;;;;;;;0.05;0.05;;;;;;;;;;5093889;28;20020;-75
2024/02/15 00:03:29;;;;;;;0.00;0.00;;;;;;;;;;5094160;28;20051;-75
2024/02/15 00:05:54;;;;;;;0.10;0.10;;;;;;;;;;5093787;28;20016;-74
2024/02/15 00:08:20;;;;;;;0.00;0.00;;;;;;;;;;5094140;28;20069;-75
2024/02/15 00:10:46;;;;;;;0.10;0.10;;;;;;;;;;5094066;28;20019;-75
2024/02/15 00:13:12;;;;;;;0.30;0.30;;;;;;;;;;5093913;28;20379;-75
2024/02/15 00:15:37;;;;;;;0.25;0.25;;;;;;;;;;5093319;28;20448;-74
2024/02/15 00:18:03;;;;;;;0.10;0.10;;;;;;;;;;5093511;28;20479;-74
2024/02/15 00:20:28;;;;;;;0.00;0.00;;;;;;;;;;5093807;28;20279;-75
2024/02/15 00:22:55;;;;;;;0.20;0.20;;;;;;;;;;5093838;28;20024;-75
2024/02/15 00:25:21;;;;;;;0.00;0.00;;;;;;;;;;5093817;28;20019;-75
2024/02/15 00:27:46;;;;;;;0.10;0.10;;;;;;;;;;5093563;28;20048;-75
2024/02/15 00:30:12;;;;;;;0.10;0.10;;;;;;;;;;5093710;28;20016;-75
2024/02/15 00:32:38;;;;;;;0.00;0.00;;;;;;;;;;5079681;28;20476;-74
2024/02/15 00:35:07;;;;;;;0.10;0.10;;;;;;;;;;5091297;28;20228;-74
2024/02/15 00:37:33;;;;;;;0.10;0.10;;;;;;;;;;5092668;28;20383;-75
2024/02/15 00:39:58;;;;;;;0.30;0.30;;;;;;;;;;5093541;28;20091;-75
2024/02/15 00:42:23;;;;;;;0.00;0.00;;;;;;;;;;5093582;28;20019;-75
2024/02/15 00:44:48;;;;;;;0.00;0.00;;;;;;;;;;5093486;28;20604;-75
2024/02/15 00:47:13;;;;;;;0.20;0.20;;;;;;;;;;5093758;28;20594;-75
2024/02/15 00:49:39;;;;;;;0.47;0.40;;;;;;;;;;5093545;28;20609;-75
2024/02/15 00:52:04;;;;;;;0.00;0.00;;;;;;;;;;5093128;28;20287;-74
2024/02/15 00:54:29;;;;;;;0.10;0.10;;;;;;;;;;5093424;28;20158;-75
2024/02/15 00:56:55;;;;;;;0.82;0.55;;;;;;;;;;5093267;28;20062;-75
2024/02/15 00:59:20;;;;;;;0.00;0.00;;;;;;;;;;5093384;28;20491;-75
2024/02/15 01:01:46;;;;;;;0.00;0.00;;;;;;;;;;5093348;28;20103;-75
2024/02/15 01:04:11;;;;;;;0.00;0.00;;;;;;;;;;5093038;28;20055;-75
2024/02/15 01:06:36;;;;;;;0.00;0.00;;;;;;;;;;5093259;28;20040;-75
2024/02/15 01:09:02;;;;;;;0.10;0.10;;;;;;;;;;5093282;28;20026;-75
2024/02/15 01:11:28;;;;;;;0.03;0.03;;;;;;;;;;5093177;28;20251;-75
2024/02/15 01:13:54;;;;;;;0.00;0.00;;;;;;;;;;5096952;28;20091;-75
2024/02/15 01:16:21;;;;;;;0.43;0.30;;;;;;;;;;5097321;28;20088;-74
2024/02/15 01:18:46;;;;;;;0.20;0.20;;;;;;;;;;5097081;28;20548;-75
2024/02/15 01:21:12;;;;;;;0.00;0.00;;;;;;;;;;5079130;28;20160;-75
2024/02/15 01:23:37;;;;;;;0.00;0.00;;;;;;;;;;5082716;28;20145;-75
2024/02/15 01:26:03;;;;;;;0.10;0.10;;;;;;;;;;5076756;28;20059;-75
2024/02/15 01:28:28;;;;;;;0.00;0.00;;;;;;;;;;5076834;28;20019;-75
2024/02/15 01:30:54;;;;;;;0.10;0.10;;;;;;;;;;5076804;28;20033;-75
2024/02/15 01:33:19;;;;;;;0.00;0.00;;;;;;;;;;5076960;28;20812;-75
2024/02/15 01:35:44;;;;;;;0.00;0.00;;;;;;;;;;5076684;28;20096;-75
2024/02/15 01:38:10;;;;;;;0.00;0.00;;;;;;;;;;5076649;28;20814;-75
2024/02/15 01:40:35;;;;;;;0.00;0.00;;;;;;;;;;5076889;28;20249;-75
2024/02/15 01:43:00;;;;;;;0.00;0.00;;;;;;;;;;5076626;28;20017;-75
2024/02/15 01:45:26;;;;;;;0.63;0.40;;;;;;;;;;5076524;28;20291;-75
2024/02/15 01:47:52;;;;;;;0.13;0.13;;;;;;;;;;5076658;28;20253;-75
2024/02/15 01:50:18;;;;;;;0.00;0.00;;;;;;;;;;5076414;28;20024;-75
2024/02/15 01:52:47;;;;;;;0.22;0.22;;;;;;;;;;5076422;28;20107;-74
2024/02/15 01:55:14;;;;;;;0.00;0.00;;;;;;;;;;5076387;28;20021;-75
2024/02/15 01:57:40;;;;;;;0.10;0.10;;;;;;;;;;5076282;28;20031;-75
2024/02/15 02:00:06;;;;;;;0.10;0.10;;;;;;;;;;5058361;28;20024;-75
2024/02/15 02:02:32;;;;;;;0.85;0.55;;;;;;;;;;5076269;28;20030;-75
2024/02/15 02:04:57;;;;;;;0.28;0.28;;;;;;;;;;5076163;28;20020;-74
2024/02/15 02:07:23;;;;;;;0.20;0.20;;;;;;;;;;5076182;28;20488;-75
2024/02/15 02:09:48;;;;;;;0.32;0.32;;;;;;;;;;5076152;28;20249;-75
2024/02/15 02:12:15;;;;;;;0.00;0.00;;;;;;;;;;5075913;28;20052;-74
2024/02/15 02:14:40;;;;;;;0.13;0.13;;;;;;;;;;5096012;28;20027;-75
2024/02/15 02:17:14;;;;;;;0.30;0.30;;;;;;;;;;5096218;28;20380;-75
2024/02/15 02:19:41;;;;;;;0.00;0.00;;;;;;;;;;5096271;28;20094;-75
2024/02/15 02:22:09;;;;;;;0.10;0.10;;;;;;;;;;5095858;28;20054;-75
2024/02/15 02:24:36;;;;;;;0.00;0.00;;;;;;;;;;5096048;28;20074;-75
2024/02/15 02:27:04;;;;;;;0.47;0.43;;;;;;;;;;5095852;28;20055;-75
2024/02/15 02:29:30;;;;;;;0.00;0.00;;;;;;;;;;5096076;28;20049;-75
2024/02/15 02:31:56;;;;;;;0.10;0.10;;;;;;;;;;5095947;28;20016;-75
2024/02/15 02:34:21;;;;;;;0.00;0.00;;;;;;;;;;5084089;28;20487;-75
2024/02/15 02:36:47;;;;;;;0.10;0.10;;;;;;;;;;5075766;28;20024;-75
2024/02/15 02:39:13;;;;;;;0.00;0.00;;;;;;;;;;5075615;28;20387;-75
2024/02/15 02:41:38;;;;;;;0.10;0.10;;;;;;;;;;5076622;28;20425;-74
2024/02/15 02:44:04;;;;;;;0.33;0.33;;;;;;;;;;5075444;28;20030;-75
2024/02/15 02:46:29;;;;;;;0.00;0.00;;;;;;;;;;5075450;28;20294;-75
2024/02/15 02:48:54;;;;;;;0.00;0.00;;;;;;;;;;5076455;28;20021;-74
2024/02/15 02:51:20;;;;;;;0.10;0.10;;;;;;;;;;5075288;28;20101;-75
2024/02/15 02:53:45;;;;;;;0.00;0.00;;;;;;;;;;5075270;28;20028;-75
2024/02/15 02:56:10;;;;;;;0.00;0.00;;;;;;;;;;5075206;28;20070;-75
2024/02/15 02:58:36;;;;;;;0.00;0.00;;;;;;;;;;5075221;28;20016;-75
2024/02/15 03:01:01;;;;;;;0.00;0.00;;;;;;;;;;5075133;28;20020;-75
2024/02/15 03:03:26;;;;;;;0.10;0.10;;;;;;;;;;5078376;28;20024;-75
2024/02/15 03:05:51;;;;;;;0.10;0.10;;;;;;;;;;5094956;28;20031;-75
2024/02/15 03:08:17;;;;;;;0.57;0.57;;;;;;;;;;5077097;28;20059;-75
2024/02/15 03:10:42;;;;;;;0.00;0.00;;;;;;;;;;5095231;28;20108;-75
2024/02/15 03:13:08;;;;;;;0.10;0.10;;;;;;;;;;5095102;28;20039;-75
2024/02/15 03:15:34;;;;;;;0.10;0.10;;;;;;;;;;5095101;28;20024;-75
2024/02/15 03:17:59;;;;;;;0.00;0.00;;;;;;;;;;5094911;28;20483;-75
2024/02/15 03:20:25;;;;;;;0.00;0.00;;;;;;;;;;5094640;28;20024;-75
2024/02/15 03:22:52;;;;;;;0.00;0.00;;;;;;;;;;5094985;28;20031;-75
2024/02/15 03:25:17;;;;;;;0.00;0.00;;;;;;;;;;5094967;28;20493;-75
2024/02/15 03:27:42;;;;;;;0.00;0.00;;;;;;;;;;5094544;28;20044;-75
2024/02/15 03:30:08;;;;;;;0.00;0.00;;;;;;;;;;5094880;28;20372;-75
2024/02/15 03:32:34;;;;;;;0.00;0.00;;;;;;;;;;5094778;28;20032;-75
2024/02/15 03:35:00;;;;;;;0.10;0.10;;;;;;;;;;5077358;28;20024;-74
2024/02/15 03:37:26;;;;;;;0.00;0.00;;;;;;;;;;5074416;28;20377;-75
2024/02/15 03:39:51;;;;;;;0.08;0.08;;;;;;;;;;5074292;28;20048;-75
2024/02/15 03:42:16;;;;;;;0.03;0.03;;;;;;;;;;5074340;28;20016;-75
2024/02/15 03:44:41;;;;;;;0.83;0.47;;;;;;;;;;5074316;28;20480;-75
2024/02/15 03:47:07;;;;;;;0.00;0.00;;;;;;;;;;5074221;28;20099;-75
2024/02/15 03:49:32;;;;;;;0.10;0.10;;;;;;;;;;5074178;28;20388;-75
2024/02/15 03:51:59;;;;;;;0.10;0.10;;;;;;;;;;5091951;28;20585;-75
2024/02/15 03:54:25;;;;;;;0.38;0.30;;;;;;;;;;5094081;28;20658;-75
2024/02/15 03:56:54;;;;;;;0.00;0.00;;;;;;;;;;5094283;28;20024;-75
2024/02/15 03:59:26;;;;;;;0.00;0.00;;;;;;;;;;5094345;28;20519;-75
2024/02/15 04:01:52;;;;;;;0.20;0.20;;;;;;;;;;5094322;28;20012;-75
2024/02/15 04:04:17;;;;;;;0.03;0.03;;;;;;;;;;5093895;28;20204;-75
2024/02/15 04:06:42;;;;;;;0.33;0.33;;;;;;;;;;5094204;28;20514;-75
2024/02/15 04:09:08;;;;;;;1.00;0.20;;;;;;;;;;5094134;28;20712;-75
2024/02/15 04:11:33;;;;;;;0.00;0.00;;;;;;;;;;5094021;28;20023;-75
2024/02/15 04:13:58;;;;;;;0.00;0.00;;;;;;;;;;5093918;28;20031;-74
2024/02/15 04:16:25;;;;;;;0.10;0.10;;;;;;;;;;5093883;28;20031;-74
2024/02/15 04:18:50;;;;;;;0.00;0.00;;;;;;;;;;5093870;28;20012;-75
2024/02/15 04:21:19;;;;;;;0.32;0.32;;;;;;;;;;5075725;28;20093;-75
2024/02/15 04:23:44;;;;;;;0.00;0.00;;;;;;;;;;5093881;28;20031;-75
2024/02/15 04:26:12;;;;;;;0.10;0.10;;;;;;;;;;5093529;28;20016;-74
2024/02/15 04:28:37;;;;;;;0.70;0.43;;;;;;;;;;5073347;28;20040;-75
2024/02/15 04:31:03;;;;;;;0.00;0.00;;;;;;;;;;5073499;28;20012;-75
2024/02/15 04:33:28;;;;;;;0.00;0.00;;;;;;;;;;5076395;28;20012;-75
2024/02/15 04:35:53;;;;;;;0.10;0.10;;;;;;;;;;5093690;28;20024;-75
2024/02/15 04:38:19;;;;;;;0.00;0.00;;;;;;;;;;5093596;28;20027;-74
2024/02/15 04:40:44;;;;;;;0.00;0.00;;;;;;;;;;5093631;28;20099;-75
2024/02/15 04:43:09;;;;;;;0.00;0.00;;;;;;;;;;5093326;28;20020;-75
2024/02/15 04:45:35;;;;;;;0.00;0.00;;;;;;;;;;5093520;28;20612;-75
2024/02/15 04:48:01;;;;;;;0.00;0.00;;;;;;;;;;5092609;28;20107;-75
2024/02/15 04:50:27;;;;;;;0.10;0.10;;;;;;;;;;5093504;28;20016;-75
2024/02/15 04:52:52;;;;;;;0.00;0.00;;;;;;;;;;5093459;28;20031;-75
2024/02/15 04:55:18;;;;;;;0.03;0.03;;;;;;;;;;5093365;28;20020;-74
2024/02/15 04:57:43;;;;;;;0.00;0.00;;;;;;;;;;5093092;28;20035;-75
2024/02/15 05:00:10;;;;;;;0.00;0.00;;;;;;;;;;5093642;28;20024;-75
2024/02/15 05:02:40;;;;;;;0.00;0.00;;;;;;;;;;5093418;28;20073;-75
2024/02/15 05:05:05;;;;;;;0.08;0.08;;;;;;;;;;5093031;28;20020;-75
2024/02/15 05:07:31;;;;;;;0.00;0.00;;;;;;;;;;5093337;28;20471;-75
2024/02/15 05:09:56;;;;;;;0.25;0.25;;;;;;;;;;5093208;28;20024;-75
2024/02/15 05:12:23;;;;;;;0.20;0.20;;;;;;;;;;5093194;28;20414;-75
2024/02/15 05:14:48;;;;;;;0.00;0.00;;;;;;;;;;5093266;28;20240;-75
2024/02/15 05:17:13;;;;;;;0.10;0.10;;;;;;;;;;5093189;28;20395;-75
2024/02/15 05:19:39;;;;;;;1.65;0.60;;;;;;;;;;5092583;28;20016;-75
2024/02/15 05:22:06;;;;;;;0.00;0.00;;;;;;;;;;5092874;28;20141;-75
2024/02/15 05:24:31;;;;;;;0.15;0.15;;;;;;;;;;5093073;28;20019;-75
2024/02/15 05:26:56;;;;;;;0.00;0.00;;;;;;;;;;5092653;28;20052;-75
2024/02/15 05:29:23;;;;;;;0.00;0.00;;;;;;;;;;5092929;28;20090;-75
2024/02/15 05:31:51;;;;;;;0.05;0.05;;;;;;;;;;5093123;28;20486;-75
2024/02/15 05:34:16;;;;;;;0.10;0.10;;;;;;;;;;5083385;28;20052;-75
2024/02/15 05:36:42;;;;;;;3.55;0.43;;;;;;;;;;5072724;28;20056;-75
2024/02/15 05:39:07;;;;;;;0.10;0.10;;;;;;;;;;5072720;28;20063;-75
2024/02/15 05:41:34;;;;;;;0.00;0.00;;;;;;;;;;5085636;28;20028;-75
2024/02/15 05:43:59;;;;;;;0.00;0.00;;;;;;;;;;5074572;28;20028;-66
2024/02/15 05:46:24;;;;;;;0.20;0.20;;;;;;;;;;5093219;28;20030;-66
2024/02/15 05:48:53;;;;;;;0.30;0.30;;;;;;;;;;5093219;28;20383;-66
2024/02/15 05:51:19;;;;;;;0.10;0.10;;;;;;;;;;5093142;28;20525;-66
2024/02/15 05:53:44;;;;;;;0.00;0.00;;;;;;;;;;5092927;28;20024;-66
2024/02/15 05:56:13;;;;;;;0.00;0.00;;;;;;;;;;5093029;28;20020;-66
2024/02/15 05:58:39;;;;;;;0.00;0.00;;;;;;;;;;5094278;28;20032;-68
2024/02/15 06:01:06;;;;;;;0.17;0.17;;;;;;;;;;5096444;28;20101;-68
2024/02/15 06:03:33;;;;;;;0.00;0.00;;;;;;;;;;5096371;28;20027;-68
2024/02/15 06:05:59;;;;;;;0.00;0.00;;;;;;;;;;5096453;28;20028;-68
2024/02/15 06:08:25;;;;;;;0.03;0.03;;;;;;;;;;5096668;28;20075;-68
2024/02/15 06:10:50;;;;;;;0.00;0.00;;;;;;;;;;5096403;28;20091;-68
2024/02/15 06:13:16;;;;;;;0.03;0.03;;;;;;;;;;5096359;28;20498;-68
2024/02/15 06:15:41;;;;;;;0.00;0.00;;;;;;;;;;5096543;28;20027;-68
2024/02/15 06:18:08;;;;;;;0.10;0.10;;;;;;;;;;5096407;28;20540;-68
2024/02/15 06:20:34;;;;;;;0.10;0.10;;;;;;;;;;5096138;28;20100;-68
2024/02/15 06:22:59;;;;;;;0.65;0.47;;;;;;;;;;5096117;28;20047;-68
2024/02/15 06:25:24;;;;;;;0.22;0.17;;;;;;;;;;5096391;28;20459;-68
2024/02/15 06:27:58;;;;;;;0.20;0.20;;;;;;;;;;5096025;28;20132;-68
2024/02/15 06:41:19;;;;;;;0.03;0.03;;;;;;;;;;5095817;28;20020;-68
2024/02/15 06:43:44;;;;;;;0.00;0.00;;;;;;;;;;5096029;28;20032;-68
2024/02/15 06:46:14;;;;;;;0.00;0.00;;;;;;;;;;5095738;28;20016;-68
2024/02/15 06:48:43;;;;;;;0.00;0.00;;;;;;;;;;5095755;28;20099;-68
2024/02/15 06:51:13;;;;;;;0.00;0.00;;;;;;;;;;5095538;28;20020;-68
2024/02/15 06:53:38;;;;;;;0.28;0.28;;;;;;;;;;5095496;28;20016;-68
2024/02/15 06:56:04;;;;;;;0.00;0.00;;;;;;;;;;5095492;28;20028;-68
2024/02/15 06:58:29;;;;;;;0.10;0.10;;;;;;;;;;5095634;28;20022;-68
2024/02/15 07:00:54;;;;;;;0.00;0.00;;;;;;;;;;5095398;28;20052;-68
2024/02/15 07:03:22;;;;;;;0.05;0.05;;;;;;;;;;5095604;28;20430;-68
2024/02/15 07:05:48;;;;;;;0.10;0.10;;;;;;;;;;5095551;28;20482;-68
2024/02/15 07:08:13;;;;;;;1.65;0.38;;;;;;;;;;5095579;28;20016;-68
2024/02/15 07:10:39;;;;;;;0.00;0.00;;;;;;;;;;5094224;28;20533;-68
2024/02/15 07:13:05;;;;;;;0.00;0.00;;;;;;;;;;5095144;28;20027;-68
2024/02/15 07:15:32;;;;;;;0.00;0.00;;;;;;;;;;5095342;28;20035;-68
2024/02/15 07:17:58;;;;;;;0.10;0.10;;;;;;;;;;5094920;28;20031;-68
2024/02/15 07:20:23;;;;;;;0.20;0.20;;;;;;;;;;5094973;28;20024;-68
2024/02/15 07:22:48;;;;;;;0.00;0.00;;;;;;;;;;5095016;28;20019;-68
2024/02/15 07:25:14;;;;;;;0.20;0.20;;;;;;;;;;5094940;28;20245;-68
2024/02/15 07:27:39;;;;;;;0.00;0.00;;;;;;;;;;5094780;28;20272;-68
2024/02/15 07:30:08;;;;;;;0.15;0.15;;;;;;;;;;5094816;28;20388;-68
2024/02/15 07:32:35;;;;;;;0.10;0.10;;;;;;;;;;5094747;28;20020;-68
2024/02/15 07:35:00;;;;;;;0.03;0.03;;;;;;;;;;5095051;28;20032;-68
2024/02/15 07:37:26;;;;;;;0.10;0.10;;;;;;;;;;5094658;28;20020;-69
2024/02/15 07:39:51;;;;;;;0.00;0.00;;;;;;;;;;5094914;28;20687;-69
2024/02/15 07:42:16;;;;;;;0.30;0.30;;;;;;;;;;5094657;28;20028;-69
2024/02/15 07:44:42;;;;;;;0.00;0.00;;;;;;;;;;5094549;28;20421;-69
2024/02/15 07:47:10;;;;;;;1.17;0.35;;;;;;;;;;5094771;28;20248;-70
2024/02/15 07:49:36;;;;;;;0.32;0.32;;;;;;;;;;5094739;28;20448;-70
2024/02/15 07:52:01;;;;;;;1.55;0.40;;;;;;;;;;5094715;28;20031;-70
2024/02/15 07:54:28;;;;;;;0.20;0.20;;;;;;;;;;5094368;28;20012;-69
2024/02/15 07:56:53;;;;;;;0.10;0.10;;;;;;;;;;5094484;28;20475;-70
2024/02/15 07:59:18;;;;;;;0.00;0.00;;;;;;;;;;5094288;28;20012;-70
2024/02/15 08:01:45;;;;;;;0.20;0.20;;;;;;;;;;5094267;28;20357;-70
2024/02/15 08:04:11;;;;;;;0.20;0.20;;;;;;;;;;5094127;28;20272;-70
2024/02/15 08:06:37;;;;;;;0.03;0.03;;;;;;;;;;5094409;28;20024;-70
2024/02/15 08:09:06;;;;;;;0.25;0.25;;;;;;;;;;5094052;28;20069;-70
2024/02/15 08:11:31;;;;;;;0.10;0.10;;;;;;;;;;5094196;28;20052;-70
2024/02/15 08:13:59;;;;;;;0.40;0.40;;;;;;;;;;5094040;28;20471;-70
2024/02/15 08:16:27;;;;;;;0.20;0.20;;;;;;;;;;5093929;28;20024;-70
2024/02/15 08:18:54;;;;;;;0.08;0.08;;;;;;;;;;5094011;28;20043;-70
2024/02/15 08:21:25;;;;;;;0.15;0.15;;;;;;;;;;5093918;28;20023;-70
2024/02/15 08:23:50;;;;;;;0.10;0.10;;;;;;;;;;5093885;28;20504;-70
2024/02/15 08:26:16;;;;;;;0.10;0.10;;;;;;;;;;5093814;28;20035;-69
2024/02/15 08:28:42;;;;;;;0.55;0.55;;;;;;;;;;5093651;28;20096;-69
2024/02/15 08:31:08;;;;;;;0.35;0.28;;;;;;;;;;5075580;28;20418;-69
2024/02/15 08:33:33;;;;;;;0.13;0.13;;;;;;;;;;5093996;28;20020;-69
2024/02/15 08:35:58;;;;;;;0.43;0.43;;;;;;;;;;5093698;28;20495;-69
2024/02/15 08:38:24;;;;;;;0.10;0.10;;;;;;;;;;5093508;28;20023;-69
2024/02/15 08:40:49;;;;;;;0.10;0.10;;;;;;;;;;5093856;28;20020;-69
2024/02/15 08:43:15;;;;;;;0.52;0.52;;;;;;;;;;5093672;28;20044;-69
2024/02/15 08:45:41;;;;;;;1.30;0.98;;;;;;;;;;5093802;28;20099;-69
2024/02/15 08:48:06;;;;;;;0.25;0.20;;;;;;;;;;5093766;28;20433;-69
2024/02/15 08:50:32;;;;;;;0.85;0.50;;;;;;;;;;5093484;28;20028;-69
2024/02/15 08:52:57;;;;;;;0.10;0.10;;;;;;;;;;5093452;28;20020;-69
2024/02/15 08:55:27;;;;;;;0.00;0.00;;;;;;;;;;5093629;28;20043;-69
2024/02/15 08:57:52;;;;;;;0.13;0.13;;;;;;;;;;5075214;28;20024;-69
2024/02/15 09:00:18;;;;;;;0.10;0.10;;;;;;;;;;5093649;28;20468;-69
2024/02/15 09:02:43;;;;;;;0.50;0.43;;;;;;;;;;5093589;28;20032;-69
2024/02/15 09:05:09;;;;;;;0.00;0.00;;;;;;;;;;5093309;28;20433;-69
2024/02/15 09:07:36;;;;;;;0.60;0.30;;;;;;;;;;5093584;28;20031;-69
2024/02/15 09:10:01;;;;;;;0.00;0.00;;;;;;;;;;5093525;28;20020;-69
2024/02/15 09:12:26;;;;;;;0.38;0.28;;;;;;;;;;5093192;28;20379;-69
2024/02/15 09:14:52;;;;;;;0.00;0.00;;;;;;;;;;5093222;28;20035;-69
2024/02/15 09:17:17;;;;;;;0.20;0.20;;;;;;;;;;5093376;28;20269;-69
2024/02/15 09:19:42;;;;;;;0.10;0.10;;;;;;;;;;5093474;28;20020;-69
2024/02/15 09:22:07;;;;;;;0.20;0.10;;;;;;;;;;5093228;28;20086;-69
2024/02/15 09:24:33;;;;;;;0.00;0.00;;;;;;;;;;5093168;28;20556;-69
2024/02/15 09:27:02;;;;;;;0.20;0.15;;;;;;;;;;5093351;28;20031;-69
2024/02/15 09:29:31;;;;;;;0.00;0.00;;;;;;;;;;5092850;28;20052;-69
2024/02/15 09:31:57;;;;;;;0.45;0.45;;;;;;;;;;5093063;28;20115;-69
2024/02/15 09:34:23;;;;;;;0.10;0.10;;;;;;;;;;5095700;28;20051;-69
2024/02/15 09:36:48;;;;;;;0.00;0.00;;;;;;;;;;5097000;28;20032;-69
2024/02/15 09:39:14;;;;;;;0.03;0.03;;;;;;;;;;5096994;28;20028;-69
2024/02/15 09:41:39;;;;;;;0.10;0.08;;;;;;;;;;5097229;28;20020;-69
2024/02/15 09:44:05;;;;;;;0.47;0.22;;;;;;;;;;5096927;28;20483;-69
2024/02/15 09:46:35;;;;;;;0.20;0.20;;;;;;;;;;5097123;28;20524;-69
2024/02/15 09:49:03;;;;;;;0.10;0.10;;;;;;;;;;5097106;28;20016;-69
2024/02/15 09:51:30;;;;;;;0.00;0.00;;;;;;;;;;5097026;28;20040;-69
2024/02/15 09:53:56;;;;;;;0.10;0.10;;;;;;;;;;5096627;28;20099;-70
2024/02/15 09:56:24;;;;;;;0.30;0.30;;;;;;;;;;5096619;28;20044;-69
2024/02/15 09:58:50;;;;;;;0.10;0.10;;;;;;;;;;5096575;28;20020;-70
2024/02/15 10:01:19;;;;;;;0.00;0.00;;;;;;;;;;5096836;28;20028;-69
2024/02/15 10:03:44;;;;;;;0.10;0.10;;;;;;;;;;5096590;28;20460;-70
2024/02/15 10:06:10;;;;;;;0.03;0.03;;;;;;;;;;5096446;28;20012;-69
2024/02/15 10:08:35;;;;;;;0.10;0.10;;;;;;;;;;5096689;28;20032;-70
2024/02/15 10:11:08;;;;;;;0.22;0.22;;;;;;;;;;5096422;28;20020;-69
2024/02/15 10:13:33;;;;;;;0.25;0.22;;;;;;;;;;5096316;28;20024;-69
2024/02/15 10:15:59;;;;;;;0.10;0.10;;;;;;;;;;5096538;28;20020;-69
2024/02/15 10:18:24;;;;;;;0.00;0.00;;;;;;;;;;5096222;28;20091;-69
2024/02/15 10:20:58;;;;;;;0.73;0.53;;;;;;;;;;5096173;28;20249;-69
2024/02/15 10:23:23;;;;;;;0.00;0.00;;;;;;;;;;5096223;28;20020;-69
2024/02/15 10:25:48;;;;;;;0.07;0.07;;;;;;;;;;5096143;28;20464;-69
2024/02/15 10:28:19;;;;;;;0.03;0.03;;;;;;;;;;5096351;28;20016;-69
2024/02/15 10:30:45;;;;;;;0.08;0.08;;;;;;;;;;5096065;28;20702;-69
2024/02/15 10:33:17;;;;;;;0.30;0.30;;;;;;;;;;5096244;28;20102;-69
2024/02/15 10:35:43;;;;;;;0.55;0.30;;;;;;;;;;5096192;28;20095;-69
2024/02/15 10:38:09;;;;;;;0.00;0.00;;;;;;;;;;5096086;28;20112;-70
2024/02/15 10:40:35;;;;;;;0.65;0.35;;;;;;;;;;5096079;28;20150;-70
2024/02/15 10:43:02;;;;;;;0.20;0.20;;;;;;;;;;5095794;28;20111;-70
2024/02/15 10:45:29;;;;;;;0.32;0.32;;;;;;;;;;5095666;28;20024;-69
2024/02/15 10:47:54;;;;;;;3.13;0.30;;;;;;;;;;5095944;28;20122;-70
2024/02/15 10:50:20;;;;;;;0.00;0.00;;;;;;;;;;5095614;28;20020;-70
2024/02/15 10:52:55;;;;;;;0.00;0.00;;;;;;;;;;5095842;28;20502;-69
2024/02/15 10:55:41;;;;;;;0.70;0.55;;;;;;;;;;5077253;28;20019;-69
2024/02/15 10:58:07;;;;;;;0.10;0.10;;;;;;;;;;5094559;28;20040;-69
2024/02/15 11:00:37;;;;;;;0.20;0.20;;;;;;;;;;5095695;28;20023;-69
2024/02/15 11:03:04;;;;;;;0.00;0.00;;;;;;;;;;5095637;28;20020;-69
2024/02/15 11:05:31;;;;;;;0.10;0.10;;;;;;;;;;5095569;28;20070;-69
2024/02/15 11:07:57;;;;;;;0.10;0.10;;;;;;;;;;5095225;28;20024;-69
2024/02/15 11:10:22;;;;;;;0.38;0.38;;;;;;;;;;5095517;28;20031;-70
2024/02/15 11:12:47;;;;;;;0.10;0.03;;;;;;;;;;5095151;28;20046;-69
2024/02/15 11:15:33;;;;;;;0.30;0.30;;;;;;;;;;5095212;28;20305;-69
2024/02/15 11:17:58;;;;;;;0.00;0.00;;;;;;;;;;5094928;28;20516;-69
2024/02/15 11:20:33;;;;;;;0.10;0.10;;;;;;;;;;5095062;28;20016;-69
2024/02/15 11:22:59;;;;;;;0.08;0.08;;;;;;;;;;5094967;28;20016;-70
2024/02/15 11:25:41;;;;;;;0.08;0.08;;;;;;;;;;5094954;28;20066;-70
2024/02/15 11:28:21;;;;;;;0.05;0.05;;;;;;;;;;5094885;28;20024;-69
2024/02/15 11:30:47;;;;;;;0.10;0.10;;;;;;;;;;5094748;28;20036;-69
2024/02/15 11:33:37;;;;;;;0.00;0.00;;;;;;;;;;5094893;28;20424;-69
2024/02/15 11:36:05;;;;;;;0.10;0.10;;;;;;;;;;5094986;28;20023;-69
2024/02/15 11:38:31;;;;;;;0.10;0.10;;;;;;;;;;5094873;28;20076;-69
2024/02/15 11:40:56;;;;;;;0.10;0.10;;;;;;;;;;5094935;28;20460;-69
2024/02/15 11:43:47;;;;;;;0.00;0.00;;;;;;;;;;5094667;28;20046;-69
2024/02/15 11:46:16;;;;;;;0.00;0.00;;;;;;;;;;5094528;28;20026;-69
2024/02/15 11:48:41;;;;;;;0.20;0.20;;;;;;;;;;5094812;28;20024;-66
2024/02/15 11:51:07;;;;;;;0.30;0.30;;;;;;;;;;5094738;28;20023;-66
2024/02/15 11:53:32;;;;;;;0.00;0.00;;;;;;;;;;5094717;28;20028;-66
2024/02/15 11:56:02;;;;;;;0.50;0.50;;;;;;;;;;5093868;28;20024;-66
2024/02/15 11:58:41;;;;;;;0.63;0.10;;;;;;;;;;5094217;28;20024;-66
2024/02/15 12:20:15;;;;;;;1.33;0.63;;;;;;;;;;5093995;28;20031;-66
2024/02/15 12:22:50;;;;;;;0.00;0.00;;;;;;;;;;5075802;28;20016;-66
2024/02/15 12:25:16;;;;;;;0.00;0.00;;;;;;;;;;5093818;28;20099;-67
2024/02/15 12:27:43;;;;;;;0.00;0.00;;;;;;;;;;5094109;28;20055;-67
2024/02/15 12:30:12;;;;;;;0.20;0.20;;;;;;;;;;5093269;28;20055;-66
2024/02/15 12:32:38;;;;;;;0.20;0.10;;;;;;;;;;5093795;28;20032;-66
2024/02/15 12:35:12;;;;;;;0.30;0.30;;;;;;;;;;5093990;28;20038;-66
2024/02/15 12:37:38;;;;;;;0.38;0.20;;;;;;;;;;5093854;28;20053;-66
2024/02/15 12:40:15;;;;;;;0.00;0.00;;;;;;;;;;5093599;28;20095;-66
2024/02/15 12:42:41;;;;;;;0.08;0.08;;;;;;;;;;5093580;28;20048;-66
2024/02/15 12:45:07;;;;;;;0.08;0.08;;;;;;;;;;5093569;28;20093;-66
2024/02/15 12:47:33;;;;;;;0.00;0.00;;;;;;;;;;5075461;28;20026;-66
2024/02/15 12:49:58;;;;;;;0.00;0.00;;;;;;;;;;5093767;28;20024;-66
2024/02/15 12:52:33;;;;;;;0.10;0.10;;;;;;;;;;5093713;28;20103;-66
2024/02/15 12:55:09;;;;;;;0.00;0.00;;;;;;;;;;5093681;28;20331;-66
2024/02/15 12:57:35;;;;;;;0.00;0.00;;;;;;;;;;5093687;28;20420;-69
2024/02/15 13:00:01;;;;;;;0.03;0.03;;;;;;;;;;5093379;28;20022;-69
2024/02/15 13:02:26;;;;;;;0.10;0.10;;;;;;;;;;5093639;28;20094;-69
2024/02/15 13:04:57;;;;;;;0.00;0.00;;;;;;;;;;5093388;28;20020;-69
2024/02/15 13:07:23;;;;;;;0.00;0.00;;;;;;;;;;5093303;28;20019;-69
2024/02/15 13:09:49;;;;;;;0.20;0.20;;;;;;;;;;5097151;28;20108;-69
2024/02/15 13:12:14;;;;;;;0.15;0.13;;;;;;;;;;5097734;28;20099;-69
2024/02/15 13:14:39;;;;;;;0.08;0.08;;;;;;;;;;5097796;28;20044;-69
2024/02/15 13:17:06;;;;;;;0.00;0.00;;;;;;;;;;5097435;28;20027;-69
2024/02/15 13:19:31;;;;;;;0.73;0.45;;;;;;;;;;5097628;28;20066;-69
2024/02/15 13:21:57;;;;;;;0.00;0.00;;;;;;;;;;5097381;28;20384;-69
2024/02/15 13:24:26;;;;;;;0.00;0.00;;;;;;;;;;5097553;28;20020;-69
2024/02/15 13:26:51;;;;;;;0.35;0.20;;;;;;;;;;5097187;28;20024;-69
2024/02/15 13:29:16;;;;;;;0.00;0.00;;;;;;;;;;5097078;28;20027;-69
2024/02/15 13:31:42;;;;;;;0.10;0.10;;;;;;;;;;5097026;28;20052;-69
2024/02/15 13:34:07;;;;;;;0.00;0.00;;;;;;;;;;5097425;28;20491;-69
2024/02/15 13:36:34;;;;;;;0.00;0.00;;;;;;;;;;5097374;28;20101;-69
2024/02/15 13:38:59;;;;;;;0.13;0.13;;;;;;;;;;5096981;28;20020;-69
2024/02/15 13:41:24;;;;;;;0.00;0.00;;;;;;;;;;5097240;28;20027;-69
2024/02/15 13:43:50;;;;;;;0.00;0.00;;;;;;;;;;5096974;28;20503;-69
2024/02/15 13:46:16;;;;;;;0.00;0.00;;;;;;;;;;5097220;28;20319;-69
2024/02/15 13:48:41;;;;;;;0.00;0.00;;;;;;;;;;5096889;28;20278;-69
2024/02/15 13:51:09;;;;;;;0.00;0.00;;;;;;;;;;5096885;28;20020;-69
2024/02/15 13:53:34;;;;;;;0.00;0.00;;;;;;;;;;5097070;28;20082;-69
2024/02/15 13:56:00;;;;;;;0.00;0.00;;;;;;;;;;5096933;28;20020;-69
2024/02/15 13:58:25;;;;;;;0.00;0.00;;;;;;;;;;5096901;28;20121;-69
2024/02/15 14:00:52;;;;;;;0.07;0.07;;;;;;;;;;5096877;28;20020;-69
2024/02/15 14:03:18;;;;;;;0.15;0.10;;;;;;;;;;5096834;28;20739;-69
2024/02/15 14:05:45;;;;;;;0.20;0.20;;;;;;;;;;5096800;28;20020;-69
2024/02/15 14:08:11;;;;;;;0.00;0.00;;;;;;;;;;5096476;28;20024;-66
2024/02/15 14:10:37;;;;;;;0.00;0.00;;;;;;;;;;5096512;28;20035;-66
2024/02/15 14:13:03;;;;;;;0.10;0.10;;;;;;;;;;5096553;28;20013;-66
2024/02/15 14:15:29;;;;;;;0.32;0.32;;;;;;;;;;5096602;28;20028;-66
2024/02/15 14:17:56;;;;;;;0.00;0.00;;;;;;;;;;5096298;28;20023;-66
2024/02/15 14:20:21;;;;;;;0.00;0.00;;;;;;;;;;5078288;28;20041;-66
2024/02/15 14:22:55;;;;;;;0.05;0.05;;;;;;;;;;5096117;28;20140;-67
2024/02/15 14:25:21;;;;;;;1.08;0.60;;;;;;;;;;5096486;28;20413;-67
2024/02/15 14:27:47;;;;;;;0.10;0.10;;;;;;;;;;5096309;28;20055;-67
2024/02/15 14:33:08;;;;;;;0.00;0.00;;;;;;;;;;5096029;28;20120;-66
2024/02/15 14:35:36;;;;;;;0.00;0.00;;;;;;;;;;5096246;28;20475;-66
2024/02/15 14:38:05;;;;;;;0.00;0.00;;;;;;;;;;5095853;28;20030;-66
2024/02/15 14:40:31;;;;;;;0.00;0.00;;;;;;;;;;5096127;28;20069;-66
2024/02/15 14:42:56;;;;;;;0.00;0.00;;;;;;;;;;5095785;28;20444;-66
2024/02/15 14:45:22;;;;;;;0.00;0.00;;;;;;;;;;5096041;28;20056;-66
2024/02/15 14:47:47;;;;;;;0.00;0.00;;;;;;;;;;5095914;28;20023;-66
2024/02/15 14:50:13;;;;;;;0.00;0.00;;;;;;;;;;5095773;28;20016;-66
2024/02/15 14:52:39;;;;;;;0.00;0.00;;;;;;;;;;5095582;28;20102;-66
2024/02/15 14:55:04;;;;;;;0.00;0.00;;;;;;;;;;5095653;28;20055;-66
2024/02/15 14:57:30;;;;;;;0.13;0.13;;;;;;;;;;5095512;28;20095;-67
2024/02/15 14:59:56;;;;;;;0.25;0.25;;;;;;;;;;5095709;28;20032;-66
2024/02/15 15:02:21;;;;;;;0.10;0.10;;;;;;;;;;5095742;28;20020;-66
2024/02/15 15:12:57;;;;;;;0.00;0.00;;;;;;;;;;5095204;28;20545;-66
2024/02/15 15:15:22;;;;;;;0.10;0.10;;;;;;;;;;5095480;28;20020;-66
2024/02/15 15:17:48;;;;;;;0.23;0.23;;;;;;;;;;5095268;28;20255;-67
2024/02/15 15:20:16;;;;;;;0.00;0.00;;;;;;;;;;5095403;28;20020;-66